createdAt,value
2022-08-20T00:00:37.061Z,96.02
2022-08-20T00:03:09.953Z,96.94
2022-08-20T00:05:42.308Z,97.11
2022-08-20T00:08:12.892Z,97.40
2022-08-20T00:10:47.639Z,97.84
2022-08-20T00:13:25.551Z,97.78
2022-08-20T00:15:58.673Z,97.98
2022-08-20T00:18:29.352Z,98.41
2022-08-20T00:21:01.808Z,98.56
2022-08-20T00:23:31.121Z,98.76
2022-08-20T00:26:00.154Z,99.13
2022-08-20T00:28:29.461Z,99.32
2022-08-20T00:31:00.773Z,99.69
2022-08-20T00:33:29.761Z,99.88
2022-08-20T00:36:07.530Z,99.96
2022-08-20T00:38:38.113Z,100.00
2022-08-20T00:41:08.375Z,100.00
2022-08-20T00:43:42.970Z,100.00
2022-08-20T00:46:16.874Z,99.46
2022-08-20T00:48:56.860Z,99.85
2022-08-20T00:51:32.670Z,99.29
2022-08-20T00:54:08.098Z,99.75
2022-08-20T00:56:37.646Z,100.00
2022-08-20T00:59:11.960Z,100.00
2022-08-20T01:01:55.903Z,100.00
2022-08-20T01:04:27.942Z,100.00
2022-08-20T01:06:59.218Z,100.00
2022-08-20T01:09:50.329Z,100.00
2022-08-20T01:12:18.790Z,100.00
2022-08-20T01:14:49.136Z,100.00
2022-08-20T01:17:24.947Z,100.00
2022-08-20T01:19:57.319Z,100.00
2022-08-20T01:22:49.241Z,100.00
2022-08-20T01:25:28.575Z,100.00
2022-08-20T01:28:00.149Z,100.00
2022-08-20T01:30:30.685Z,100.00
2022-08-20T01:32:59.059Z,100.00
2022-08-20T01:35:34.235Z,100.00
2022-08-20T01:38:04.379Z,100.00
2022-08-20T01:40:53.931Z,100.00
2022-08-20T01:43:28.088Z,100.00
2022-08-20T01:46:01.779Z,100.00
2022-08-20T01:48:34.779Z,100.00
2022-08-20T01:51:08.142Z,100.00
2022-08-20T01:53:40.750Z,100.00
2022-08-20T01:56:14.845Z,100.00
2022-08-20T01:58:50.393Z,100.00
2022-08-20T02:01:33.978Z,100.00
2022-08-20T02:04:20.460Z,100.00
2022-08-20T02:06:57.662Z,100.00
2022-08-20T02:09:30.149Z,100.00
2022-08-20T02:12:00.442Z,100.00
2022-08-20T02:14:32.436Z,100.00
2022-08-20T02:17:04.444Z,100.00
2022-08-20T02:19:38.694Z,100.00
2022-08-20T02:22:18.265Z,100.00
2022-08-20T02:24:48.101Z,100.00
2022-08-20T02:27:19.227Z,100.00
2022-08-20T02:29:52.781Z,100.00
2022-08-20T02:32:33.824Z,100.00
2022-08-20T02:35:04.074Z,100.00
2022-08-20T02:37:34.102Z,100.00
2022-08-20T02:40:03.360Z,100.00
2022-08-20T02:42:32.498Z,100.00
2022-08-20T02:45:04.799Z,100.00
2022-08-20T02:47:34.471Z,100.00
2022-08-20T02:50:06.918Z,100.00
2022-08-20T02:52:37.376Z,100.00
2022-08-20T02:55:07.096Z,100.00
2022-08-20T02:57:36.105Z,100.00
2022-08-20T03:00:12.639Z,100.00
2022-08-20T03:02:41.847Z,100.00
2022-08-20T03:05:12.075Z,100.00
2022-08-20T03:07:46.285Z,100.00
2022-08-20T03:10:15.961Z,100.00
2022-08-20T03:12:45.992Z,100.00
2022-08-20T03:15:21.583Z,100.00
2022-08-20T03:17:52.874Z,100.00
2022-08-20T03:20:23.822Z,100.00
2022-08-20T03:22:54.465Z,100.00
2022-08-20T03:25:23.983Z,100.00
2022-08-20T03:27:56.126Z,100.00
2022-08-20T03:30:28.969Z,100.00
2022-08-20T03:32:58.643Z,100.00
2022-08-20T03:35:30.552Z,100.00
2022-08-20T03:38:01.077Z,100.00
2022-08-20T03:40:33.798Z,100.00
2022-08-20T03:43:03.411Z,100.00
2022-08-20T03:45:34.046Z,100.00
2022-08-20T03:48:04.982Z,100.00
2022-08-20T03:50:34.381Z,100.00
2022-08-20T03:53:04.750Z,100.00
2022-08-20T03:55:34.139Z,100.00
2022-08-20T03:58:06.814Z,100.00
2022-08-20T04:00:41.009Z,100.00
2022-08-20T04:03:11.658Z,100.00
2022-08-20T04:05:42.788Z,100.00
2022-08-20T04:08:16.708Z,100.00
2022-08-20T04:10:47.717Z,100.00
2022-08-20T04:13:19.471Z,100.00
2022-08-20T04:15:57.685Z,100.00
2022-08-20T04:18:28.274Z,100.00
2022-08-20T04:20:58.008Z,100.00
2022-08-20T04:23:27.016Z,100.00
2022-08-20T04:25:57.714Z,100.00
2022-08-20T04:28:28.863Z,100.00
2022-08-20T04:31:01.820Z,100.00
2022-08-20T04:33:34.117Z,100.00
2022-08-20T04:36:10.226Z,100.00
2022-08-20T04:38:50.028Z,100.00
2022-08-20T04:41:25.208Z,100.00
2022-08-20T04:43:56.234Z,100.00
2022-08-20T04:46:29.450Z,100.00
2022-08-20T04:48:59.536Z,100.00
2022-08-20T04:51:29.478Z,100.00
2022-08-20T04:54:01.679Z,100.00
2022-08-20T04:56:33.100Z,100.00
2022-08-20T04:59:04.683Z,100.00
2022-08-20T05:01:35.166Z,100.00
2022-08-20T05:04:05.431Z,100.00
2022-08-20T05:06:35.556Z,100.00
2022-08-20T05:09:05.267Z,100.00
2022-08-20T05:11:37.039Z,100.00
2022-08-20T05:14:09.718Z,100.00
2022-08-20T05:16:42.627Z,100.00
2022-08-20T05:19:14.699Z,100.00
2022-08-20T05:21:43.792Z,100.00
2022-08-20T05:24:13.229Z,100.00
2022-08-20T05:26:42.520Z,100.00
2022-08-20T05:29:11.647Z,100.00
2022-08-20T05:31:42.622Z,100.00
2022-08-20T05:34:14.476Z,100.00
2022-08-20T05:36:48.186Z,100.00
2022-08-20T05:39:20.967Z,100.00
2022-08-20T05:41:51.727Z,100.00
2022-08-20T05:44:26.518Z,100.00
2022-08-20T05:46:57.662Z,100.00
2022-08-20T05:49:27.077Z,100.00
2022-08-20T05:51:57.043Z,100.00
2022-08-20T05:54:26.269Z,100.00
2022-08-20T05:56:56.000Z,100.00
2022-08-20T05:59:25.768Z,99.65
2022-08-20T06:01:54.759Z,98.59
2022-08-20T06:04:30.251Z,98.12
2022-08-20T06:07:04.901Z,97.61
2022-08-20T06:09:35.791Z,97.20
2022-08-20T06:12:12.190Z,97.29
2022-08-20T06:14:43.299Z,96.79
2022-08-20T06:17:15.553Z,96.28
2022-08-20T06:19:48.529Z,96.56
2022-08-20T06:22:24.837Z,95.29
2022-08-20T06:24:57.868Z,94.74
2022-08-20T06:27:26.762Z,95.05
2022-08-20T06:29:56.281Z,94.95
2022-08-20T06:32:32.197Z,94.49
2022-08-20T06:35:03.994Z,94.68
2022-08-20T06:37:36.912Z,94.26
2022-08-20T06:40:10.266Z,93.73
2022-08-20T06:42:48.096Z,93.41
2022-08-20T06:45:21.174Z,93.92
2022-08-20T06:47:54.380Z,93.52
2022-08-20T06:50:27.260Z,93.44
2022-08-20T06:52:56.765Z,93.37
2022-08-20T06:55:25.940Z,93.05
2022-08-20T06:57:59.875Z,93.43
2022-08-20T07:00:31.825Z,92.75
2022-08-20T07:03:02.815Z,91.87
2022-08-20T07:05:36.938Z,91.87
2022-08-20T07:08:07.284Z,91.29
2022-08-20T07:10:37.415Z,91.45
2022-08-20T07:13:06.730Z,90.02
2022-08-20T07:15:36.299Z,89.38
2022-08-20T07:18:06.839Z,89.01
2022-08-20T07:20:40.699Z,89.34
2022-08-20T07:23:11.531Z,89.38
2022-08-20T07:25:42.756Z,88.59
2022-08-20T07:28:15.828Z,88.21
2022-08-20T07:31:06.544Z,88.20
2022-08-20T07:33:44.513Z,87.33
2022-08-20T07:36:15.336Z,86.27
2022-08-20T07:38:46.848Z,85.79
2022-08-20T07:41:16.646Z,85.61
2022-08-20T07:43:46.733Z,85.27
2022-08-20T07:46:20.776Z,85.60
2022-08-20T07:48:51.828Z,84.61
2022-08-20T07:51:23.724Z,83.88
2022-08-20T07:53:53.140Z,83.58
2022-08-20T07:56:25.028Z,82.83
2022-08-20T07:58:59.388Z,82.39
2022-08-20T08:01:31.785Z,82.23
2022-08-20T08:04:03.088Z,82.45
2022-08-20T08:06:33.436Z,82.03
2022-08-20T08:09:06.987Z,80.42
2022-08-20T08:11:39.738Z,80.07
2022-08-20T08:14:11.231Z,78.15
2022-08-20T08:16:40.205Z,75.48
2022-08-20T08:19:12.197Z,76.65
2022-08-20T08:21:42.663Z,77.04
2022-08-20T08:24:15.451Z,75.32
2022-08-20T08:26:50.318Z,74.46
2022-08-20T08:29:19.018Z,73.73
2022-08-20T08:31:48.593Z,73.90
2022-08-20T08:34:17.653Z,73.81
2022-08-20T08:36:47.659Z,72.90
2022-08-20T08:39:16.682Z,74.02
2022-08-20T08:41:50.142Z,71.88
2022-08-20T08:44:23.724Z,74.08
2022-08-20T08:46:56.601Z,72.78
2022-08-20T08:49:35.188Z,71.02
2022-08-20T08:52:14.869Z,68.61
2022-08-20T08:54:47.917Z,67.54
2022-08-20T08:57:17.119Z,67.29
2022-08-20T09:00:03.422Z,67.80
2022-08-20T09:02:36.432Z,67.97
2022-08-20T09:05:16.103Z,67.81
2022-08-20T09:07:53.145Z,68.47
2022-08-20T09:10:23.561Z,67.03
2022-08-20T09:12:52.719Z,66.33
2022-08-20T09:15:23.258Z,65.37
2022-08-20T09:17:52.422Z,65.83
2022-08-20T09:20:25.965Z,63.73
2022-08-20T09:22:57.808Z,63.75
2022-08-20T09:25:26.965Z,64.11
2022-08-20T09:27:56.049Z,62.99
2022-08-20T09:30:26.538Z,62.79
2022-08-20T09:32:55.265Z,63.76
2022-08-20T09:35:24.206Z,62.82
2022-08-20T09:37:53.935Z,61.00
2022-08-20T09:40:24.753Z,62.32
2022-08-20T09:42:53.910Z,62.25
2022-08-20T09:45:23.307Z,61.45
2022-08-20T09:47:56.640Z,61.54
2022-08-20T09:50:26.982Z,61.51
2022-08-20T09:52:57.715Z,60.32
2022-08-20T09:55:35.559Z,58.12
2022-08-20T09:58:07.563Z,58.51
2022-08-20T10:00:36.703Z,57.41
2022-08-20T10:03:05.728Z,57.60
2022-08-20T10:05:34.533Z,56.85
2022-08-20T10:08:06.916Z,56.40
2022-08-20T10:10:37.516Z,56.41
2022-08-20T10:13:06.923Z,57.65
2022-08-20T10:15:39.006Z,56.83
2022-08-20T10:18:12.198Z,50.85
2022-08-20T10:20:41.536Z,56.32
2022-08-20T10:23:11.066Z,57.11
2022-08-20T10:25:41.463Z,58.17
2022-08-20T10:28:10.494Z,55.68
2022-08-20T10:30:38.922Z,55.60
2022-08-20T10:33:08.220Z,55.13
2022-08-20T10:35:36.939Z,55.39
2022-08-20T10:38:05.979Z,56.80
2022-08-20T10:40:34.677Z,55.62
2022-08-20T10:43:05.397Z,56.50
2022-08-20T10:45:34.001Z,55.81
2022-08-20T10:48:03.349Z,54.50
2022-08-20T10:50:31.925Z,53.21
2022-08-20T10:53:00.559Z,53.57
2022-08-20T10:55:29.952Z,54.74
2022-08-20T10:57:59.023Z,53.68
2022-08-20T11:00:29.787Z,53.32
2022-08-20T11:02:58.611Z,53.80
2022-08-20T11:05:27.560Z,51.38
2022-08-20T11:07:56.940Z,52.25
2022-08-20T11:10:28.045Z,52.47
2022-08-20T11:12:59.676Z,51.67
2022-08-20T11:15:30.129Z,51.81
2022-08-20T11:17:59.065Z,50.32
2022-08-20T11:20:28.148Z,50.31
2022-08-20T11:22:57.044Z,49.37
2022-08-20T11:25:26.146Z,49.52
2022-08-20T11:27:56.443Z,50.84
2022-08-20T11:30:29.050Z,50.51
2022-08-20T11:33:00.681Z,49.32
2022-08-20T11:35:49.237Z,49.61
2022-08-20T11:38:19.142Z,51.02
2022-08-20T11:40:47.940Z,49.86
2022-08-20T11:43:18.277Z,50.57
2022-08-20T11:45:49.249Z,48.72
2022-08-20T11:48:19.650Z,48.66
2022-08-20T11:50:48.924Z,49.88
2022-08-20T11:53:17.943Z,48.28
2022-08-20T11:55:47.036Z,49.62
2022-08-20T11:58:16.670Z,48.17
2022-08-20T12:00:46.116Z,49.57
2022-08-20T12:03:14.801Z,47.10
2022-08-20T12:05:46.896Z,47.61
2022-08-20T12:08:27.290Z,48.50
2022-08-20T12:10:57.174Z,43.55
2022-08-20T12:13:30.815Z,47.35
2022-08-20T12:16:14.545Z,48.64
2022-08-20T12:18:43.036Z,46.06
2022-08-20T12:21:13.513Z,45.86
2022-08-20T12:23:42.340Z,46.91
2022-08-20T12:26:11.021Z,46.63
2022-08-20T12:28:39.951Z,46.65
2022-08-20T12:31:08.717Z,46.38
2022-08-20T12:33:37.101Z,45.82
2022-08-20T12:36:06.302Z,46.61
2022-08-20T12:38:36.294Z,46.11
2022-08-20T12:41:04.699Z,46.36
2022-08-20T12:43:33.146Z,45.70
2022-08-20T12:46:01.480Z,46.64
2022-08-20T12:48:30.429Z,47.03
2022-08-20T12:50:58.846Z,46.72
2022-08-20T12:53:27.741Z,46.76
2022-08-20T12:55:58.323Z,47.31
2022-08-20T12:58:27.620Z,47.06
2022-08-20T13:00:56.288Z,46.47
2022-08-20T13:03:24.881Z,47.71
2022-08-20T13:05:53.327Z,46.54
2022-08-20T13:08:22.101Z,46.26
2022-08-20T13:10:51.283Z,45.95
2022-08-20T13:13:30.613Z,45.13
2022-08-20T13:15:59.168Z,46.89
2022-08-20T13:18:27.606Z,45.85
2022-08-20T13:20:56.041Z,45.74
2022-08-20T13:23:24.853Z,45.51
2022-08-20T13:25:53.790Z,46.21
2022-08-20T13:28:22.325Z,47.03
2022-08-20T13:30:52.275Z,46.43
2022-08-20T13:33:20.946Z,45.91
2022-08-20T13:35:50.168Z,46.36
2022-08-20T13:38:19.799Z,47.55
2022-08-20T13:40:49.077Z,47.01
2022-08-20T13:43:18.075Z,47.32
2022-08-20T13:45:46.687Z,48.19
2022-08-20T13:48:17.067Z,47.05
2022-08-20T13:50:46.942Z,46.75
2022-08-20T13:53:18.258Z,47.74
2022-08-20T13:55:46.879Z,47.48
2022-08-20T13:58:15.820Z,48.33
2022-08-20T14:00:45.575Z,49.88
2022-08-20T14:03:14.154Z,50.73
2022-08-20T14:05:50.297Z,50.81
2022-08-20T14:08:22.035Z,49.79
2022-08-20T14:10:53.843Z,48.94
2022-08-20T14:13:25.495Z,49.98
2022-08-20T14:15:54.882Z,50.88
2022-08-20T14:18:24.309Z,50.11
2022-08-20T14:20:55.659Z,52.00
2022-08-20T14:23:24.529Z,51.51
2022-08-20T14:25:53.055Z,52.52
2022-08-20T14:28:24.847Z,51.31
2022-08-20T14:30:53.934Z,52.24
2022-08-20T14:33:24.046Z,53.66
2022-08-20T14:35:55.818Z,53.90
2022-08-20T14:38:24.603Z,53.23
2022-08-20T14:40:53.370Z,52.83
2022-08-20T14:43:22.517Z,52.20
2022-08-20T14:45:51.271Z,51.60
2022-08-20T14:48:20.083Z,52.45
2022-08-20T14:50:48.968Z,54.42
2022-08-20T14:53:19.609Z,52.31
2022-08-20T14:55:48.178Z,53.59
2022-08-20T14:58:19.442Z,52.60
2022-08-20T15:00:48.243Z,52.12
2022-08-20T15:03:17.067Z,52.32
2022-08-20T15:05:45.876Z,51.44
2022-08-20T15:08:21.686Z,53.46
2022-08-20T15:10:56.890Z,52.52
2022-08-20T15:13:26.505Z,53.02
2022-08-20T15:15:56.211Z,52.73
2022-08-20T15:18:27.247Z,52.25
2022-08-20T15:20:56.717Z,52.89
2022-08-20T15:23:26.648Z,53.29
2022-08-20T15:25:55.254Z,54.37
2022-08-20T15:28:23.705Z,54.87
2022-08-20T15:30:52.209Z,55.05
2022-08-20T15:33:21.108Z,55.25
2022-08-20T15:35:49.786Z,56.09
2022-08-20T15:38:18.780Z,56.27
2022-08-20T15:40:49.629Z,56.14
2022-08-20T15:43:18.060Z,56.27
2022-08-20T15:45:46.432Z,56.48
2022-08-20T15:48:19.382Z,55.99
2022-08-20T15:51:16.394Z,54.59
2022-08-20T15:53:55.401Z,56.52
2022-08-20T15:56:50.567Z,57.21
2022-08-20T15:59:42.431Z,57.42
2022-08-20T16:02:46.398Z,58.79
2022-08-20T16:05:23.731Z,59.24
2022-08-20T16:08:04.729Z,60.54
2022-08-20T16:10:45.050Z,60.46
2022-08-20T16:13:27.548Z,60.44
2022-08-20T16:16:01.052Z,60.63
2022-08-20T16:18:34.545Z,61.19
2022-08-20T16:21:07.295Z,61.03
2022-08-20T16:23:40.688Z,61.36
2022-08-20T16:26:24.816Z,60.52
2022-08-20T16:29:03.646Z,60.90
2022-08-20T16:31:41.020Z,61.20
2022-08-20T16:34:28.194Z,61.25
2022-08-20T16:37:12.907Z,61.51
2022-08-20T16:39:48.432Z,61.88
2022-08-20T16:42:24.628Z,61.77
2022-08-20T16:44:56.544Z,61.64
2022-08-20T16:47:29.704Z,62.19
2022-08-20T16:50:02.031Z,62.21
2022-08-20T16:52:31.241Z,62.27
2022-08-20T16:55:00.381Z,62.91
2022-08-20T16:57:30.157Z,63.25
2022-08-20T17:00:09.540Z,63.65
2022-08-20T17:02:50.408Z,63.71
2022-08-20T17:05:19.738Z,64.20
2022-08-20T17:07:52.899Z,64.05
2022-08-20T17:10:26.709Z,64.91
2022-08-20T17:12:59.791Z,65.11
2022-08-20T17:15:33.594Z,65.56
2022-08-20T17:18:22.193Z,66.98
2022-08-20T17:20:51.544Z,66.83
2022-08-20T17:23:26.193Z,66.99
2022-08-20T17:26:02.063Z,67.36
2022-08-20T17:28:35.355Z,67.37
2022-08-20T17:31:05.378Z,68.16
2022-08-20T17:33:39.736Z,68.38
2022-08-20T17:36:12.761Z,67.92
2022-08-20T17:38:47.867Z,68.72
2022-08-20T17:41:24.193Z,69.89
2022-08-20T17:43:59.363Z,69.49
2022-08-20T17:46:58.630Z,70.06
2022-08-20T17:50:03.185Z,70.56
2022-08-20T17:52:41.518Z,71.12
2022-08-20T17:55:13.468Z,71.57
2022-08-20T17:57:45.874Z,71.72
2022-08-20T18:00:24.818Z,71.97
2022-08-20T18:02:59.699Z,71.77
2022-08-20T18:05:32.496Z,71.88
2022-08-20T18:08:14.277Z,71.96
2022-08-20T18:10:59.629Z,72.51
2022-08-20T18:13:48.150Z,72.71
2022-08-20T18:16:27.113Z,72.93
2022-08-20T18:19:03.799Z,73.10
2022-08-20T18:22:06.016Z,73.85
2022-08-20T18:24:37.885Z,73.92
2022-08-20T18:27:14.536Z,73.28
2022-08-20T18:29:47.283Z,73.54
2022-08-20T18:32:31.096Z,74.54
2022-08-20T18:35:20.195Z,75.74
2022-08-20T18:37:49.804Z,74.39
2022-08-20T18:40:29.850Z,74.62
2022-08-20T18:43:13.935Z,75.20
2022-08-20T18:45:43.556Z,75.02
2022-08-20T18:48:22.812Z,76.26
2022-08-20T18:51:15.287Z,76.74
2022-08-20T18:53:51.956Z,76.38
2022-08-20T18:56:35.388Z,76.68
2022-08-20T18:59:09.783Z,76.39
2022-08-20T19:01:40.333Z,76.39
2022-08-20T19:04:22.242Z,77.12
2022-08-20T19:06:57.290Z,78.11
2022-08-20T19:10:03.492Z,76.99
2022-08-20T19:12:52.556Z,77.05
2022-08-20T19:15:23.975Z,76.48
2022-08-20T19:18:04.803Z,77.27
2022-08-20T19:20:37.627Z,76.97
2022-08-20T19:23:13.271Z,77.23
2022-08-20T19:25:53.937Z,77.11
2022-08-20T19:28:29.446Z,77.08
2022-08-20T19:31:11.322Z,77.58
2022-08-20T19:33:43.960Z,77.27
2022-08-20T19:36:15.961Z,77.12
2022-08-20T19:38:46.802Z,78.31
2022-08-20T19:41:31.022Z,77.40
2022-08-20T19:44:01.064Z,77.29
2022-08-20T19:46:33.193Z,77.30
2022-08-20T19:49:21.132Z,78.18
2022-08-20T19:52:01.490Z,78.02
2022-08-20T19:54:32.157Z,77.95
2022-08-20T19:57:07.047Z,77.92
2022-08-20T20:00:04.381Z,78.18
2022-08-20T20:02:51.342Z,78.38
2022-08-20T20:05:44.415Z,78.78
2022-08-20T20:08:35.330Z,78.94
2022-08-20T20:11:27.652Z,79.26
2022-08-20T20:14:03.263Z,79.37
2022-08-20T20:16:33.356Z,79.53
2022-08-20T20:19:25.223Z,79.87
2022-08-20T20:22:02.830Z,80.12
2022-08-20T20:24:41.285Z,80.35
2022-08-20T20:27:20.853Z,80.36
2022-08-20T20:29:52.053Z,80.54
2022-08-20T20:32:24.622Z,80.43
2022-08-20T20:34:56.653Z,80.95
2022-08-20T20:37:48.866Z,81.07
2022-08-20T20:40:27.256Z,80.88
2022-08-20T20:43:07.281Z,81.50
2022-08-20T20:45:41.703Z,80.95
2022-08-20T20:48:21.494Z,82.63
2022-08-20T20:50:56.285Z,81.60
2022-08-20T20:53:47.433Z,82.53
2022-08-20T20:56:34.182Z,83.52
2022-08-20T20:59:07.161Z,83.05
2022-08-20T21:01:48.743Z,83.21
2022-08-20T21:04:20.095Z,83.18
2022-08-20T21:06:51.139Z,83.34
2022-08-20T21:09:21.370Z,83.44
2022-08-20T21:11:50.364Z,83.17
2022-08-20T21:14:22.890Z,83.32
2022-08-20T21:16:51.789Z,83.39
2022-08-20T21:19:21.067Z,83.35
2022-08-20T21:21:49.701Z,83.13
2022-08-20T21:24:18.344Z,83.30
2022-08-20T21:26:47.739Z,83.54
2022-08-20T21:29:18.724Z,83.59
2022-08-20T21:31:50.777Z,83.82
2022-08-20T21:34:20.834Z,84.25
2022-08-20T21:36:49.989Z,84.75
2022-08-20T21:39:19.560Z,84.82
2022-08-20T21:41:52.558Z,85.07
2022-08-20T21:44:29.884Z,85.74
2022-08-20T21:47:06.990Z,86.33
2022-08-20T21:49:39.434Z,86.37
2022-08-20T21:55:39.658Z,87.27
2022-08-20T21:58:13.312Z,87.27
2022-08-20T22:00:56.226Z,88.61
2022-08-20T22:03:31.303Z,88.14
2022-08-20T22:06:01.321Z,88.72
2022-08-20T22:08:33.124Z,88.94
2022-08-20T22:11:18.878Z,89.52
2022-08-20T22:13:49.709Z,89.62
2022-08-20T22:16:24.174Z,89.98
2022-08-20T22:18:55.412Z,90.43
2022-08-20T22:21:27.156Z,90.78
2022-08-20T22:23:59.503Z,91.61
2022-08-20T22:26:28.987Z,92.20
2022-08-20T22:28:58.244Z,92.45
2022-08-20T22:31:32.106Z,93.60
2022-08-20T22:34:03.211Z,94.55
2022-08-20T22:36:34.292Z,94.92
2022-08-20T22:39:03.030Z,95.43
2022-08-20T22:41:31.876Z,95.35
2022-08-20T22:44:00.768Z,95.42
2022-08-20T22:46:34.047Z,95.54
2022-08-20T22:49:05.241Z,95.25
2022-08-20T22:51:38.766Z,95.31
2022-08-20T22:54:11.512Z,95.71
2022-08-20T22:56:40.847Z,95.88
2022-08-20T22:59:09.680Z,96.00
2022-08-20T23:01:40.497Z,96.47
2022-08-20T23:04:15.332Z,96.97
2022-08-20T23:06:47.532Z,97.04
2022-08-20T23:09:20.940Z,97.20
2022-08-20T23:11:50.123Z,97.57
2022-08-20T23:14:19.021Z,98.26
2022-08-20T23:16:52.855Z,98.46
2022-08-20T23:19:24.169Z,98.91
2022-08-20T23:21:54.049Z,98.90
2022-08-20T23:24:24.039Z,99.15
2022-08-20T23:26:53.643Z,99.54
2022-08-20T23:29:25.797Z,100.00
2022-08-20T23:31:56.108Z,100.00
2022-08-20T23:34:27.535Z,100.00
2022-08-20T23:36:57.745Z,100.00
2022-08-20T23:39:27.018Z,100.00
2022-08-20T23:41:57.096Z,100.00
2022-08-20T23:44:27.195Z,100.00
2022-08-20T23:46:58.289Z,100.00
2022-08-20T23:49:29.524Z,100.00
2022-08-20T23:52:00.895Z,100.00
2022-08-20T23:54:34.005Z,100.00
2022-08-20T23:57:02.909Z,100.00
2022-08-20T23:59:37.109Z,100.00
